sensor_id;sensor_type;location;lat;lon;timestamp;P1;durP1;ratioP1;P2;durP2;ratioP2
19747;SDS011;10032;51.386;12.516;2023-04-25T00:02:02;4.53;;;3.77;;
19747;SDS011;10032;51.386;12.516;2023-04-25T00:04:28;5.27;;;3.83;;
19747;SDS011;10032;51.386;12.516;2023-04-25T00:06:54;4.20;;;3.27;;
19747;SDS011;10032;51.386;12.516;2023-04-25T00:09:21;5.50;;;3.40;;
19747;SDS011;10032;51.386;12.516;2023-04-25T00:11:48;4.93;;;3.77;;
19747;SDS011;10032;51.386;12.516;2023-04-25T00:14:14;5.13;;;3.77;;
19747;SDS011;10032;51.386;12.516;2023-04-25T00:16:39;5.30;;;3.47;;
19747;SDS011;10032;51.386;12.516;2023-04-25T00:19:06;5.03;;;3.73;;
19747;SDS011;10032;51.386;12.516;2023-04-25T00:21:32;6.20;;;4.23;;
19747;SDS011;10032;51.386;12.516;2023-04-25T00:23:58;4.77;;;3.77;;
19747;SDS011;10032;51.386;12.516;2023-04-25T00:26:24;5.13;;;3.57;;
19747;SDS011;10032;51.386;12.516;2023-04-25T00:28:49;6.40;;;4.00;;
19747;SDS011;10032;51.386;12.516;2023-04-25T00:31:15;5.33;;;3.43;;
19747;SDS011;10032;51.386;12.516;2023-04-25T00:33:40;5.57;;;3.47;;
19747;SDS011;10032;51.386;12.516;2023-04-25T00:36:06;6.37;;;4.10;;
19747;SDS011;10032;51.386;12.516;2023-04-25T00:38:32;3.73;;;3.23;;
19747;SDS011;10032;51.386;12.516;2023-04-25T00:40:57;5.87;;;3.80;;
19747;SDS011;10032;51.386;12.516;2023-04-25T00:43:25;10.60;;;3.93;;
19747;SDS011;10032;51.386;12.516;2023-04-25T00:45:51;4.80;;;3.40;;
19747;SDS011;10032;51.386;12.516;2023-04-25T00:48:17;5.30;;;3.63;;
19747;SDS011;10032;51.386;12.516;2023-04-25T00:50:47;4.47;;;3.50;;
19747;SDS011;10032;51.386;12.516;2023-04-25T00:53:18;5.47;;;3.60;;
19747;SDS011;10032;51.386;12.516;2023-04-25T00:55:43;4.37;;;3.37;;
19747;SDS011;10032;51.386;12.516;2023-04-25T00:58:09;6.07;;;4.37;;
19747;SDS011;10032;51.386;12.516;2023-04-25T01:00:34;5.67;;;3.87;;
19747;SDS011;10032;51.386;12.516;2023-04-25T01:03:01;6.13;;;3.53;;
19747;SDS011;10032;51.386;12.516;2023-04-25T01:05:28;3.70;;;3.33;;
19747;SDS011;10032;51.386;12.516;2023-04-25T01:07:54;5.53;;;3.47;;
19747;SDS011;10032;51.386;12.516;2023-04-25T01:10:20;5.90;;;4.13;;
19747;SDS011;10032;51.386;12.516;2023-04-25T01:12:45;5.20;;;3.80;;
19747;SDS011;10032;51.386;12.516;2023-04-25T01:15:11;5.30;;;3.50;;
19747;SDS011;10032;51.386;12.516;2023-04-25T01:17:37;5.50;;;4.07;;
19747;SDS011;10032;51.386;12.516;2023-04-25T01:20:03;6.50;;;4.00;;
19747;SDS011;10032;51.386;12.516;2023-04-25T01:22:30;6.33;;;3.80;;
19747;SDS011;10032;51.386;12.516;2023-04-25T01:24:56;4.90;;;3.97;;
19747;SDS011;10032;51.386;12.516;2023-04-25T01:27:22;6.63;;;4.07;;
19747;SDS011;10032;51.386;12.516;2023-04-25T01:29:48;6.70;;;4.93;;
19747;SDS011;10032;51.386;12.516;2023-04-25T01:32:14;5.83;;;4.27;;
19747;SDS011;10032;51.386;12.516;2023-04-25T01:34:41;5.13;;;3.50;;
19747;SDS011;10032;51.386;12.516;2023-04-25T01:37:06;6.00;;;4.40;;
19747;SDS011;10032;51.386;12.516;2023-04-25T01:39:31;5.77;;;4.27;;
19747;SDS011;10032;51.386;12.516;2023-04-25T01:41:58;6.20;;;4.47;;
19747;SDS011;10032;51.386;12.516;2023-04-25T01:44:24;5.30;;;4.23;;
19747;SDS011;10032;51.386;12.516;2023-04-25T01:46:50;4.47;;;3.77;;
19747;SDS011;10032;51.386;12.516;2023-04-25T01:49:16;8.80;;;4.33;;
19747;SDS011;10032;51.386;12.516;2023-04-25T01:51:41;6.83;;;4.67;;
19747;SDS011;10032;51.386;12.516;2023-04-25T01:54:07;6.00;;;4.10;;
19747;SDS011;10032;51.386;12.516;2023-04-25T01:56:36;5.27;;;4.10;;
19747;SDS011;10032;51.386;12.516;2023-04-25T01:59:03;6.77;;;4.30;;
19747;SDS011;10032;51.386;12.516;2023-04-25T02:01:28;6.70;;;3.93;;
19747;SDS011;10032;51.386;12.516;2023-04-25T02:03:54;4.63;;;3.80;;
19747;SDS011;10032;51.386;12.516;2023-04-25T02:06:19;6.33;;;3.83;;
19747;SDS011;10032;51.386;12.516;2023-04-25T02:08:45;5.53;;;3.90;;
19747;SDS011;10032;51.386;12.516;2023-04-25T02:11:10;7.87;;;4.03;;
19747;SDS011;10032;51.386;12.516;2023-04-25T02:13:36;4.73;;;3.80;;
19747;SDS011;10032;51.386;12.516;2023-04-25T02:16:01;5.73;;;3.80;;
19747;SDS011;10032;51.386;12.516;2023-04-25T02:18:27;7.40;;;3.77;;
19747;SDS011;10032;51.386;12.516;2023-04-25T02:20:52;5.97;;;3.97;;
19747;SDS011;10032;51.386;12.516;2023-04-25T02:23:18;5.60;;;3.60;;
19747;SDS011;10032;51.386;12.516;2023-04-25T02:25:46;5.97;;;3.40;;
19747;SDS011;10032;51.386;12.516;2023-04-25T02:28:12;7.37;;;4.10;;
19747;SDS011;10032;51.386;12.516;2023-04-25T02:30:37;5.13;;;3.30;;
19747;SDS011;10032;51.386;12.516;2023-04-25T02:33:02;4.97;;;3.77;;
19747;SDS011;10032;51.386;12.516;2023-04-25T02:35:28;4.87;;;3.47;;
19747;SDS011;10032;51.386;12.516;2023-04-25T02:37:53;5.07;;;3.60;;
19747;SDS011;10032;51.386;12.516;2023-04-25T02:40:19;4.27;;;3.20;;
19747;SDS011;10032;51.386;12.516;2023-04-25T02:42:44;5.00;;;3.70;;
19747;SDS011;10032;51.386;12.516;2023-04-25T02:45:10;7.80;;;3.87;;
19747;SDS011;10032;51.386;12.516;2023-04-25T02:47:36;4.40;;;4.00;;
19747;SDS011;10032;51.386;12.516;2023-04-25T02:50:02;6.00;;;4.20;;
19747;SDS011;10032;51.386;12.516;2023-04-25T02:52:28;5.33;;;3.80;;
19747;SDS011;10032;51.386;12.516;2023-04-25T02:54:53;6.97;;;4.50;;
19747;SDS011;10032;51.386;12.516;2023-04-25T02:57:19;5.97;;;4.10;;
19747;SDS011;10032;51.386;12.516;2023-04-25T02:59:44;6.63;;;3.93;;
19747;SDS011;10032;51.386;12.516;2023-04-25T03:02:09;5.07;;;3.97;;
19747;SDS011;10032;51.386;12.516;2023-04-25T03:04:35;7.37;;;4.07;;
19747;SDS011;10032;51.386;12.516;2023-04-25T03:07:00;5.73;;;3.97;;
19747;SDS011;10032;51.386;12.516;2023-04-25T03:09:26;6.50;;;4.10;;
19747;SDS011;10032;51.386;12.516;2023-04-25T03:11:51;11.20;;;4.93;;
19747;SDS011;10032;51.386;12.516;2023-04-25T03:14:17;5.63;;;4.00;;
19747;SDS011;10032;51.386;12.516;2023-04-25T03:16:42;5.80;;;4.20;;
19747;SDS011;10032;51.386;12.516;2023-04-25T03:19:08;4.87;;;4.30;;
19747;SDS011;10032;51.386;12.516;2023-04-25T03:21:34;6.93;;;4.20;;
19747;SDS011;10032;51.386;12.516;2023-04-25T03:24:01;6.33;;;4.10;;
19747;SDS011;10032;51.386;12.516;2023-04-25T03:26:28;7.27;;;4.43;;
19747;SDS011;10032;51.386;12.516;2023-04-25T03:28:53;6.43;;;3.90;;
19747;SDS011;10032;51.386;12.516;2023-04-25T03:31:19;8.50;;;4.83;;
19747;SDS011;10032;51.386;12.516;2023-04-25T03:33:44;6.77;;;3.60;;
19747;SDS011;10032;51.386;12.516;2023-04-25T03:36:10;9.70;;;4.27;;
19747;SDS011;10032;51.386;12.516;2023-04-25T03:38:35;6.67;;;3.90;;
19747;SDS011;10032;51.386;12.516;2023-04-25T03:41:01;5.27;;;4.10;;
19747;SDS011;10032;51.386;12.516;2023-04-25T03:43:27;8.80;;;5.57;;
19747;SDS011;10032;51.386;12.516;2023-04-25T03:45:52;11.40;;;4.90;;
19747;SDS011;10032;51.386;12.516;2023-04-25T03:48:18;9.50;;;6.33;;
19747;SDS011;10032;51.386;12.516;2023-04-25T03:50:46;7.00;;;5.10;;
19747;SDS011;10032;51.386;12.516;2023-04-25T03:53:12;7.83;;;5.03;;
19747;SDS011;10032;51.386;12.516;2023-04-25T03:55:37;8.40;;;5.10;;
19747;SDS011;10032;51.386;12.516;2023-04-25T03:58:03;7.00;;;4.93;;
19747;SDS011;10032;51.386;12.516;2023-04-25T04:00:28;8.90;;;4.80;;
19747;SDS011;10032;51.386;12.516;2023-04-25T04:02:53;10.33;;;4.73;;
19747;SDS011;10032;51.386;12.516;2023-04-25T04:05:19;10.30;;;5.57;;
19747;SDS011;10032;51.386;12.516;2023-04-25T04:07:44;6.27;;;4.37;;
19747;SDS011;10032;51.386;12.516;2023-04-25T04:10:10;8.47;;;5.00;;
19747;SDS011;10032;51.386;12.516;2023-04-25T04:12:35;7.37;;;4.47;;
19747;SDS011;10032;51.386;12.516;2023-04-25T04:15:03;6.00;;;4.70;;
19747;SDS011;10032;51.386;12.516;2023-04-25T04:17:29;8.30;;;4.80;;
19747;SDS011;10032;51.386;12.516;2023-04-25T04:19:55;7.63;;;4.60;;
19747;SDS011;10032;51.386;12.516;2023-04-25T04:22:21;12.50;;;4.80;;
19747;SDS011;10032;51.386;12.516;2023-04-25T04:24:47;7.80;;;4.47;;
19747;SDS011;10032;51.386;12.516;2023-04-25T04:27:12;8.03;;;4.90;;
19747;SDS011;10032;51.386;12.516;2023-04-25T04:29:38;8.27;;;5.23;;
19747;SDS011;10032;51.386;12.516;2023-04-25T04:32:03;7.73;;;4.53;;
19747;SDS011;10032;51.386;12.516;2023-04-25T04:34:29;7.03;;;4.43;;
19747;SDS011;10032;51.386;12.516;2023-04-25T04:36:56;8.60;;;5.17;;
19747;SDS011;10032;51.386;12.516;2023-04-25T04:39:21;6.57;;;4.30;;
19747;SDS011;10032;51.386;12.516;2023-04-25T04:41:47;7.17;;;3.67;;
19747;SDS011;10032;51.386;12.516;2023-04-25T04:44:12;5.57;;;3.60;;
19747;SDS011;10032;51.386;12.516;2023-04-25T04:46:39;6.97;;;4.53;;
19747;SDS011;10032;51.386;12.516;2023-04-25T04:49:05;6.63;;;4.40;;
19747;SDS011;10032;51.386;12.516;2023-04-25T04:51:31;6.83;;;4.20;;
19747;SDS011;10032;51.386;12.516;2023-04-25T04:53:56;5.70;;;3.90;;
19747;SDS011;10032;51.386;12.516;2023-04-25T04:56:23;6.70;;;4.17;;
19747;SDS011;10032;51.386;12.516;2023-04-25T04:58:50;6.00;;;3.83;;
19747;SDS011;10032;51.386;12.516;2023-04-25T05:01:16;9.47;;;4.80;;
19747;SDS011;10032;51.386;12.516;2023-04-25T05:03:41;5.43;;;3.60;;
19747;SDS011;10032;51.386;12.516;2023-04-25T05:06:07;8.17;;;3.73;;
19747;SDS011;10032;51.386;12.516;2023-04-25T05:08:33;6.17;;;3.63;;
19747;SDS011;10032;51.386;12.516;2023-04-25T05:10:59;8.40;;;4.17;;
19747;SDS011;10032;51.386;12.516;2023-04-25T05:13:24;6.03;;;4.00;;
19747;SDS011;10032;51.386;12.516;2023-04-25T05:15:50;10.10;;;4.63;;
19747;SDS011;10032;51.386;12.516;2023-04-25T05:18:15;5.30;;;4.10;;
19747;SDS011;10032;51.386;12.516;2023-04-25T05:20:40;7.33;;;4.00;;
19747;SDS011;10032;51.386;12.516;2023-04-25T05:23:06;5.97;;;3.93;;
19747;SDS011;10032;51.386;12.516;2023-04-25T05:25:31;6.60;;;3.63;;
19747;SDS011;10032;51.386;12.516;2023-04-25T05:27:56;7.07;;;4.30;;
19747;SDS011;10032;51.386;12.516;2023-04-25T05:30:23;7.10;;;4.10;;
19747;SDS011;10032;51.386;12.516;2023-04-25T05:32:48;4.70;;;3.53;;
19747;SDS011;10032;51.386;12.516;2023-04-25T05:35:14;6.97;;;3.73;;
19747;SDS011;10032;51.386;12.516;2023-04-25T05:37:39;8.77;;;4.53;;
19747;SDS011;10032;51.386;12.516;2023-04-25T05:40:05;8.97;;;3.97;;
19747;SDS011;10032;51.386;12.516;2023-04-25T05:42:32;5.13;;;4.50;;
19747;SDS011;10032;51.386;12.516;2023-04-25T05:44:57;4.87;;;3.80;;
19747;SDS011;10032;51.386;12.516;2023-04-25T05:47:23;9.07;;;4.33;;
19747;SDS011;10032;51.386;12.516;2023-04-25T05:49:48;8.33;;;4.70;;
19747;SDS011;10032;51.386;12.516;2023-04-25T05:52:13;6.97;;;4.57;;
19747;SDS011;10032;51.386;12.516;2023-04-25T05:54:40;5.60;;;4.00;;
19747;SDS011;10032;51.386;12.516;2023-04-25T05:57:05;10.20;;;4.37;;
19747;SDS011;10032;51.386;12.516;2023-04-25T05:59:31;7.23;;;3.93;;
19747;SDS011;10032;51.386;12.516;2023-04-25T06:01:56;5.33;;;4.13;;
19747;SDS011;10032;51.386;12.516;2023-04-25T06:04:22;7.97;;;4.47;;
19747;SDS011;10032;51.386;12.516;2023-04-25T06:06:47;5.07;;;3.77;;
19747;SDS011;10032;51.386;12.516;2023-04-25T06:09:13;8.17;;;4.07;;
19747;SDS011;10032;51.386;12.516;2023-04-25T06:11:38;5.73;;;4.37;;
19747;SDS011;10032;51.386;12.516;2023-04-25T06:14:04;9.33;;;4.33;;
19747;SDS011;10032;51.386;12.516;2023-04-25T06:16:29;7.23;;;4.90;;
19747;SDS011;10032;51.386;12.516;2023-04-25T06:18:54;5.23;;;4.27;;
19747;SDS011;10032;51.386;12.516;2023-04-25T06:21:20;6.30;;;4.23;;
19747;SDS011;10032;51.386;12.516;2023-04-25T06:23:45;5.53;;;4.13;;
19747;SDS011;10032;51.386;12.516;2023-04-25T06:26:11;10.43;;;4.23;;
19747;SDS011;10032;51.386;12.516;2023-04-25T06:28:36;6.07;;;3.80;;
19747;SDS011;10032;51.386;12.516;2023-04-25T06:31:01;6.63;;;4.37;;
19747;SDS011;10032;51.386;12.516;2023-04-25T06:33:27;7.90;;;4.27;;
19747;SDS011;10032;51.386;12.516;2023-04-25T06:35:52;4.80;;;4.03;;
19747;SDS011;10032;51.386;12.516;2023-04-25T06:38:18;10.67;;;4.30;;
19747;SDS011;10032;51.386;12.516;2023-04-25T06:40:43;6.93;;;3.97;;
19747;SDS011;10032;51.386;12.516;2023-04-25T06:43:08;5.60;;;3.97;;
19747;SDS011;10032;51.386;12.516;2023-04-25T06:45:34;6.87;;;3.93;;
19747;SDS011;10032;51.386;12.516;2023-04-25T06:47:59;6.80;;;4.17;;
19747;SDS011;10032;51.386;12.516;2023-04-25T06:50:25;6.07;;;4.07;;
19747;SDS011;10032;51.386;12.516;2023-04-25T06:52:51;6.83;;;4.00;;
19747;SDS011;10032;51.386;12.516;2023-04-25T06:55:16;8.60;;;4.63;;
19747;SDS011;10032;51.386;12.516;2023-04-25T06:57:41;11.30;;;4.07;;
19747;SDS011;10032;51.386;12.516;2023-04-25T07:00:07;5.77;;;4.00;;
19747;SDS011;10032;51.386;12.516;2023-04-25T07:02:36;5.27;;;3.83;;
19747;SDS011;10032;51.386;12.516;2023-04-25T07:05:02;5.53;;;4.20;;
19747;SDS011;10032;51.386;12.516;2023-04-25T07:07:29;10.50;;;4.30;;
19747;SDS011;10032;51.386;12.516;2023-04-25T07:09:55;7.43;;;5.13;;
19747;SDS011;10032;51.386;12.516;2023-04-25T07:12:20;6.43;;;4.17;;
19747;SDS011;10032;51.386;12.516;2023-04-25T07:14:46;8.13;;;4.03;;
19747;SDS011;10032;51.386;12.516;2023-04-25T07:17:11;6.50;;;4.10;;
19747;SDS011;10032;51.386;12.516;2023-04-25T07:19:37;6.87;;;4.33;;
19747;SDS011;10032;51.386;12.516;2023-04-25T07:22:04;6.33;;;3.90;;
19747;SDS011;10032;51.386;12.516;2023-04-25T07:24:30;6.43;;;3.60;;
19747;SDS011;10032;51.386;12.516;2023-04-25T07:26:56;5.57;;;3.90;;
19747;SDS011;10032;51.386;12.516;2023-04-25T07:29:21;5.73;;;3.87;;
19747;SDS011;10032;51.386;12.516;2023-04-25T07:31:47;7.03;;;3.67;;
19747;SDS011;10032;51.386;12.516;2023-04-25T07:34:12;5.67;;;3.50;;
19747;SDS011;10032;51.386;12.516;2023-04-25T07:36:38;9.47;;;4.20;;
19747;SDS011;10032;51.386;12.516;2023-04-25T07:39:03;6.10;;;4.33;;
19747;SDS011;10032;51.386;12.516;2023-04-25T07:41:29;5.60;;;3.57;;
19747;SDS011;10032;51.386;12.516;2023-04-25T07:43:54;7.27;;;3.80;;
19747;SDS011;10032;51.386;12.516;2023-04-25T07:46:20;7.07;;;4.10;;
19747;SDS011;10032;51.386;12.516;2023-04-25T07:48:45;8.77;;;4.17;;
19747;SDS011;10032;51.386;12.516;2023-04-25T07:51:10;4.67;;;3.67;;
19747;SDS011;10032;51.386;12.516;2023-04-25T07:53:36;6.37;;;3.63;;
19747;SDS011;10032;51.386;12.516;2023-04-25T07:56:02;6.93;;;3.93;;
19747;SDS011;10032;51.386;12.516;2023-04-25T07:58:28;8.67;;;3.83;;
19747;SDS011;10032;51.386;12.516;2023-04-25T08:00:53;10.23;;;4.10;;
19747;SDS011;10032;51.386;12.516;2023-04-25T08:03:19;5.20;;;4.13;;
19747;SDS011;10032;51.386;12.516;2023-04-25T08:05:45;7.27;;;3.90;;
19747;SDS011;10032;51.386;12.516;2023-04-25T08:08:10;5.93;;;3.47;;
19747;SDS011;10032;51.386;12.516;2023-04-25T08:10:36;7.70;;;2.90;;
19747;SDS011;10032;51.386;12.516;2023-04-25T08:13:01;10.70;;;2.90;;
19747;SDS011;10032;51.386;12.516;2023-04-25T08:15:27;4.00;;;2.17;;
19747;SDS011;10032;51.386;12.516;2023-04-25T08:17:52;3.60;;;2.80;;
19747;SDS011;10032;51.386;12.516;2023-04-25T08:20:18;4.80;;;2.67;;
19747;SDS011;10032;51.386;12.516;2023-04-25T08:22:43;3.50;;;2.20;;
19747;SDS011;10032;51.386;12.516;2023-04-25T08:25:09;4.93;;;2.37;;
19747;SDS011;10032;51.386;12.516;2023-04-25T08:27:34;4.90;;;2.20;;
19747;SDS011;10032;51.386;12.516;2023-04-25T08:30:00;3.63;;;2.30;;
19747;SDS011;10032;51.386;12.516;2023-04-25T08:32:27;3.27;;;2.27;;
19747;SDS011;10032;51.386;12.516;2023-04-25T08:34:53;3.70;;;2.40;;
19747;SDS011;10032;51.386;12.516;2023-04-25T08:37:20;5.77;;;2.33;;
19747;SDS011;10032;51.386;12.516;2023-04-25T08:39:46;9.60;;;2.93;;
19747;SDS011;10032;51.386;12.516;2023-04-25T08:42:13;3.90;;;2.40;;
19747;SDS011;10032;51.386;12.516;2023-04-25T08:44:40;4.10;;;2.30;;
19747;SDS011;10032;51.386;12.516;2023-04-25T08:47:06;8.07;;;2.97;;
19747;SDS011;10032;51.386;12.516;2023-04-25T08:49:32;5.57;;;2.80;;
19747;SDS011;10032;51.386;12.516;2023-04-25T08:52:02;3.90;;;2.50;;
19747;SDS011;10032;51.386;12.516;2023-04-25T08:54:31;4.30;;;3.20;;
19747;SDS011;10032;51.386;12.516;2023-04-25T08:56:57;4.77;;;2.40;;
19747;SDS011;10032;51.386;12.516;2023-04-25T08:59:26;7.40;;;2.50;;
19747;SDS011;10032;51.386;12.516;2023-04-25T09:01:53;4.20;;;2.80;;
19747;SDS011;10032;51.386;12.516;2023-04-25T09:04:18;5.23;;;2.80;;
19747;SDS011;10032;51.386;12.516;2023-04-25T09:06:45;6.07;;;2.50;;
19747;SDS011;10032;51.386;12.516;2023-04-25T09:09:11;7.40;;;3.27;;
19747;SDS011;10032;51.386;12.516;2023-04-25T09:11:37;6.53;;;3.03;;
19747;SDS011;10032;51.386;12.516;2023-04-25T09:16:56;5.83;;;2.97;;
19747;SDS011;10032;51.386;12.516;2023-04-25T09:19:23;6.03;;;2.87;;
19747;SDS011;10032;51.386;12.516;2023-04-25T09:21:50;4.53;;;2.97;;
19747;SDS011;10032;51.386;12.516;2023-04-25T09:24:18;5.40;;;3.00;;
19747;SDS011;10032;51.386;12.516;2023-04-25T09:26:55;8.37;;;2.90;;
19747;SDS011;10032;51.386;12.516;2023-04-25T09:29:24;7.67;;;2.60;;
19747;SDS011;10032;51.386;12.516;2023-04-25T09:31:57;6.70;;;2.97;;
19747;SDS011;10032;51.386;12.516;2023-04-25T09:34:40;6.57;;;2.80;;
19747;SDS011;10032;51.386;12.516;2023-04-25T09:37:09;7.53;;;3.00;;
19747;SDS011;10032;51.386;12.516;2023-04-25T09:39:39;9.37;;;2.73;;
19747;SDS011;10032;51.386;12.516;2023-04-25T09:42:04;3.93;;;2.87;;
19747;SDS011;10032;51.386;12.516;2023-04-25T09:44:31;8.70;;;3.83;;
19747;SDS011;10032;51.386;12.516;2023-04-25T09:46:56;7.23;;;3.03;;
19747;SDS011;10032;51.386;12.516;2023-04-25T09:49:22;5.80;;;2.57;;
19747;SDS011;10032;51.386;12.516;2023-04-25T09:51:57;7.17;;;3.27;;
19747;SDS011;10032;51.386;12.516;2023-04-25T09:54:24;6.07;;;2.97;;
19747;SDS011;10032;51.386;12.516;2023-04-25T09:56:51;9.13;;;3.07;;
19747;SDS011;10032;51.386;12.516;2023-04-25T09:59:19;5.23;;;2.93;;
19747;SDS011;10032;51.386;12.516;2023-04-25T10:01:47;8.23;;;3.20;;
19747;SDS011;10032;51.386;12.516;2023-04-25T10:04:14;7.37;;;3.27;;
19747;SDS011;10032;51.386;12.516;2023-04-25T10:06:44;4.90;;;2.70;;
19747;SDS011;10032;51.386;12.516;2023-04-25T10:09:12;10.17;;;3.23;;
19747;SDS011;10032;51.386;12.516;2023-04-25T10:11:39;6.53;;;3.33;;
19747;SDS011;10032;51.386;12.516;2023-04-25T10:14:04;5.43;;;3.07;;
19747;SDS011;10032;51.386;12.516;2023-04-25T10:16:31;4.57;;;2.73;;
19747;SDS011;10032;51.386;12.516;2023-04-25T10:18:57;9.07;;;3.93;;
19747;SDS011;10032;51.386;12.516;2023-04-25T10:21:23;7.67;;;3.23;;
19747;SDS011;10032;51.386;12.516;2023-04-25T10:23:52;10.07;;;2.93;;
19747;SDS011;10032;51.386;12.516;2023-04-25T10:26:18;4.83;;;3.27;;
19747;SDS011;10032;51.386;12.516;2023-04-25T10:29:00;7.57;;;3.30;;
19747;SDS011;10032;51.386;12.516;2023-04-25T10:31:27;9.37;;;3.67;;
19747;SDS011;10032;51.386;12.516;2023-04-25T10:33:55;9.30;;;3.13;;
19747;SDS011;10032;51.386;12.516;2023-04-25T10:36:22;8.63;;;3.93;;
19747;SDS011;10032;51.386;12.516;2023-04-25T10:38:49;9.10;;;3.83;;
19747;SDS011;10032;51.386;12.516;2023-04-25T10:41:20;10.97;;;4.57;;
19747;SDS011;10032;51.386;12.516;2023-04-25T10:43:48;5.80;;;3.50;;
19747;SDS011;10032;51.386;12.516;2023-04-25T10:48:53;5.47;;;3.37;;
19747;SDS011;10032;51.386;12.516;2023-04-25T10:51:21;10.07;;;4.80;;
19747;SDS011;10032;51.386;12.516;2023-04-25T10:56:19;9.23;;;4.53;;
19747;SDS011;10032;51.386;12.516;2023-04-25T10:58:48;10.07;;;3.93;;
19747;SDS011;10032;51.386;12.516;2023-04-25T11:01:15;10.00;;;4.60;;
19747;SDS011;10032;51.386;12.516;2023-04-25T11:03:44;6.67;;;3.90;;
19747;SDS011;10032;51.386;12.516;2023-04-25T11:06:23;8.43;;;4.47;;
19747;SDS011;10032;51.386;12.516;2023-04-25T11:08:54;6.40;;;4.17;;
19747;SDS011;10032;51.386;12.516;2023-04-25T11:11:20;6.20;;;3.83;;
19747;SDS011;10032;51.386;12.516;2023-04-25T11:13:49;6.30;;;4.00;;
19747;SDS011;10032;51.386;12.516;2023-04-25T11:16:15;12.43;;;4.07;;
19747;SDS011;10032;51.386;12.516;2023-04-25T11:18:41;6.73;;;4.00;;
19747;SDS011;10032;51.386;12.516;2023-04-25T11:21:08;12.27;;;4.37;;
19747;SDS011;10032;51.386;12.516;2023-04-25T11:23:33;11.13;;;4.17;;
19747;SDS011;10032;51.386;12.516;2023-04-25T11:25:59;10.70;;;4.87;;
19747;SDS011;10032;51.386;12.516;2023-04-25T11:28:26;7.23;;;4.23;;
19747;SDS011;10032;51.386;12.516;2023-04-25T11:30:52;8.27;;;3.90;;
19747;SDS011;10032;51.386;12.516;2023-04-25T11:33:18;6.87;;;4.13;;
19747;SDS011;10032;51.386;12.516;2023-04-25T11:35:47;9.73;;;4.27;;
19747;SDS011;10032;51.386;12.516;2023-04-25T11:38:13;8.50;;;4.20;;
19747;SDS011;10032;51.386;12.516;2023-04-25T11:40:38;12.70;;;3.90;;
19747;SDS011;10032;51.386;12.516;2023-04-25T11:43:04;12.57;;;5.10;;
19747;SDS011;10032;51.386;12.516;2023-04-25T11:45:29;6.90;;;3.57;;
19747;SDS011;10032;51.386;12.516;2023-04-25T11:47:58;7.80;;;4.67;;
19747;SDS011;10032;51.386;12.516;2023-04-25T11:50:23;7.17;;;4.10;;
19747;SDS011;10032;51.386;12.516;2023-04-25T11:52:48;9.10;;;4.13;;
19747;SDS011;10032;51.386;12.516;2023-04-25T11:55:16;7.83;;;4.10;;
19747;SDS011;10032;51.386;12.516;2023-04-25T11:57:44;9.37;;;4.00;;
19747;SDS011;10032;51.386;12.516;2023-04-25T12:02:42;9.17;;;3.60;;
19747;SDS011;10032;51.386;12.516;2023-04-25T12:05:09;7.33;;;3.53;;
19747;SDS011;10032;51.386;12.516;2023-04-25T12:07:35;9.13;;;3.77;;
19747;SDS011;10032;51.386;12.516;2023-04-25T12:10:05;5.40;;;3.67;;
19747;SDS011;10032;51.386;12.516;2023-04-25T12:12:33;10.53;;;3.93;;
19747;SDS011;10032;51.386;12.516;2023-04-25T12:17:54;7.03;;;3.10;;
19747;SDS011;10032;51.386;12.516;2023-04-25T12:20:21;7.63;;;3.60;;
19747;SDS011;10032;51.386;12.516;2023-04-25T12:22:50;5.73;;;2.90;;
19747;SDS011;10032;51.386;12.516;2023-04-25T12:25:35;6.40;;;3.07;;
19747;SDS011;10032;51.386;12.516;2023-04-25T12:28:15;5.67;;;3.00;;
19747;SDS011;10032;51.386;12.516;2023-04-25T12:33:36;4.27;;;2.30;;
19747;SDS011;10032;51.386;12.516;2023-04-25T12:36:03;3.93;;;2.07;;
19747;SDS011;10032;51.386;12.516;2023-04-25T12:38:36;4.37;;;2.33;;
19747;SDS011;10032;51.386;12.516;2023-04-25T12:41:05;6.27;;;3.07;;
19747;SDS011;10032;51.386;12.516;2023-04-25T12:43:31;6.67;;;2.87;;
19747;SDS011;10032;51.386;12.516;2023-04-25T12:45:57;7.17;;;2.53;;
19747;SDS011;10032;51.386;12.516;2023-04-25T12:48:22;11.07;;;3.40;;
19747;SDS011;10032;51.386;12.516;2023-04-25T12:50:49;2.33;;;2.10;;
19747;SDS011;10032;51.386;12.516;2023-04-25T12:53:19;5.07;;;2.10;;
19747;SDS011;10032;51.386;12.516;2023-04-25T12:55:46;3.20;;;2.20;;
19747;SDS011;10032;51.386;12.516;2023-04-25T12:58:15;10.83;;;2.50;;
19747;SDS011;10032;51.386;12.516;2023-04-25T13:00:42;8.17;;;2.63;;
19747;SDS011;10032;51.386;12.516;2023-04-25T13:03:08;5.63;;;2.07;;
19747;SDS011;10032;51.386;12.516;2023-04-25T13:05:34;3.97;;;2.00;;
19747;SDS011;10032;51.386;12.516;2023-04-25T13:08:00;3.83;;;1.90;;
19747;SDS011;10032;51.386;12.516;2023-04-25T13:10:25;4.77;;;2.03;;
19747;SDS011;10032;51.386;12.516;2023-04-25T13:12:51;2.70;;;2.00;;
19747;SDS011;10032;51.386;12.516;2023-04-25T13:15:16;2.40;;;1.63;;
19747;SDS011;10032;51.386;12.516;2023-04-25T13:17:42;2.97;;;1.87;;
19747;SDS011;10032;51.386;12.516;2023-04-25T13:20:07;6.80;;;2.10;;
19747;SDS011;10032;51.386;12.516;2023-04-25T13:22:37;3.73;;;1.60;;
19747;SDS011;10032;51.386;12.516;2023-04-25T13:25:04;2.73;;;2.03;;
19747;SDS011;10032;51.386;12.516;2023-04-25T13:27:31;2.70;;;1.50;;
19747;SDS011;10032;51.386;12.516;2023-04-25T13:29:58;5.60;;;2.50;;
19747;SDS011;10032;51.386;12.516;2023-04-25T13:32:26;3.07;;;1.70;;
19747;SDS011;10032;51.386;12.516;2023-04-25T13:34:51;4.00;;;1.90;;
19747;SDS011;10032;51.386;12.516;2023-04-25T13:37:17;5.77;;;2.03;;
19747;SDS011;10032;51.386;12.516;2023-04-25T13:39:43;5.03;;;1.70;;
19747;SDS011;10032;51.386;12.516;2023-04-25T13:42:08;4.43;;;1.90;;
19747;SDS011;10032;51.386;12.516;2023-04-25T13:44:34;2.07;;;1.40;;
19747;SDS011;10032;51.386;12.516;2023-04-25T13:46:59;4.07;;;1.80;;
19747;SDS011;10032;51.386;12.516;2023-04-25T13:49:25;2.93;;;2.00;;
19747;SDS011;10032;51.386;12.516;2023-04-25T13:51:51;2.67;;;1.87;;
19747;SDS011;10032;51.386;12.516;2023-04-25T13:54:16;7.93;;;1.70;;
19747;SDS011;10032;51.386;12.516;2023-04-25T13:56:42;3.80;;;2.10;;
19747;SDS011;10032;51.386;12.516;2023-04-25T13:59:07;5.47;;;2.03;;
19747;SDS011;10032;51.386;12.516;2023-04-25T14:01:33;3.77;;;2.10;;
19747;SDS011;10032;51.386;12.516;2023-04-25T14:04:00;3.23;;;1.80;;
19747;SDS011;10032;51.386;12.516;2023-04-25T14:06:26;5.83;;;2.20;;
19747;SDS011;10032;51.386;12.516;2023-04-25T14:08:53;4.80;;;1.87;;
19747;SDS011;10032;51.386;12.516;2023-04-25T14:11:19;6.80;;;1.90;;
19747;SDS011;10032;51.386;12.516;2023-04-25T14:13:45;5.00;;;2.10;;
19747;SDS011;10032;51.386;12.516;2023-04-25T14:16:11;3.07;;;1.90;;
19747;SDS011;10032;51.386;12.516;2023-04-25T14:18:36;2.57;;;1.50;;
19747;SDS011;10032;51.386;12.516;2023-04-25T14:21:01;2.53;;;1.70;;
19747;SDS011;10032;51.386;12.516;2023-04-25T14:23:27;2.97;;;1.87;;
19747;SDS011;10032;51.386;12.516;2023-04-25T14:25:52;4.67;;;2.10;;
19747;SDS011;10032;51.386;12.516;2023-04-25T14:28:18;5.40;;;2.13;;
19747;SDS011;10032;51.386;12.516;2023-04-25T14:30:44;6.43;;;2.07;;
19747;SDS011;10032;51.386;12.516;2023-04-25T14:33:10;3.73;;;2.07;;
19747;SDS011;10032;51.386;12.516;2023-04-25T14:35:36;5.67;;;2.60;;
19747;SDS011;10032;51.386;12.516;2023-04-25T14:38:01;5.00;;;2.10;;
19747;SDS011;10032;51.386;12.516;2023-04-25T14:40:26;2.10;;;1.50;;
19747;SDS011;10032;51.386;12.516;2023-04-25T14:42:52;3.47;;;2.10;;
19747;SDS011;10032;51.386;12.516;2023-04-25T14:45:17;4.10;;;1.57;;